Adrian, Missouri
Current Conditions -  °F | °C
As of 6:35 PM on Sunday 25 Jan 2015 (Local Time) from KGLY Reporting Station
Overcast Overcast  
Wind Chill: 28°   Ceiling: 1700
Heat Index: 37°   Visibility: 10mi
Dew Point: 34°   Wind: 17mph
Humidity: 87%   Direction: 350°N
Pressure: 30.04"   Gusts: 22mph
Location:  38.4°N, 94.35°W
Report Text: KGLY 260035Z AUTO 35015G19KT 10SM OVC017 03/01 A3004 RMK AO2
Loading
Personal Weather Stations






























Interactive Weather Map New forecast layout! Learn more

10-Day Weather Forecast

Advertisements
Track Severe Weather on mobile